メインページ
METAR-TAF:

METAR-TAF

空港 :

ハルツーム国際空港

ハルツーム, スーダン

緯度: 15-36N, 経度: 032-33E, 海抜: 382m

現時点の気象観測

当レポートは22分前の12:00(UTC)に作成
南/南西の風 3kt
気温 38°C
湿度 21%
気圧 1009 hPa
視程10km以上
高度5000ftの雲は散在している

METAR: HSSS 211200Z 20003KT 9999 SCT050 38/12 Q1009 NOSIG

時間: 15:22 (12:22 UTC)

予報

当レポートは1時間22分前の11:00(UTC)に作成
予報は21日の 12時(UTC)から 22日の 18時(UTC)まで有効
の風 10kt、最大20ktの突風を伴う
視程: 8000m
高度4000ftの雲はほとんどない
高度14000ftの雲は散在している

TAF: HSSS 211100Z 2112/2218 36010G20KT 8000 FEW040 SCT140

4,000以上の空港の気象観測と天気予報(METAR報とTAF報)

利用可能な観測所は地図上に黄色い丸と赤い丸で示す。

丸の上にカーソルを重ねると観測所名を参照できる。

次にクリックすると気象観測と天気予報を参照できる。

マップの切り替え:黒色「×」印の緑ボタンをクリックして拡大、「-」印の緑ボタンをクリックして縮小、緑色の三角印をクリックして隣りの地図に切り替え


METAR-TAF: